sensor_id;sensor_type;location;lat;lon;timestamp;pressure;altitude;pressure_sealevel;temperature;humidity
59367;BME280;45163;47.690;11.770;2023-01-29T00:00:01;94019.47;;;-7.16;100.00
59367;BME280;45163;47.690;11.770;2023-01-29T00:02:27;94023.84;;;-7.20;100.00
59367;BME280;45163;47.690;11.770;2023-01-29T00:04:53;94026.03;;;-7.22;100.00
59367;BME280;45163;47.690;11.770;2023-01-29T00:07:19;94025.69;;;-7.21;100.00
59367;BME280;45163;47.690;11.770;2023-01-29T00:09:45;94032.13;;;-7.13;100.00
59367;BME280;45163;47.690;11.770;2023-01-29T00:12:11;94025.56;;;-7.16;100.00
59367;BME280;45163;47.690;11.770;2023-01-29T00:14:37;94021.78;;;-7.23;100.00
59367;BME280;45163;47.690;11.770;2023-01-29T00:17:03;94021.31;;;-7.25;100.00
59367;BME280;45163;47.690;11.770;2023-01-29T00:19:29;94022.38;;;-7.35;100.00
59367;BME280;45163;47.690;11.770;2023-01-29T00:21:55;94017.94;;;-7.40;100.00
59367;BME280;45163;47.690;11.770;2023-01-29T00:24:21;94014.28;;;-7.30;100.00
59367;BME280;45163;47.690;11.770;2023-01-29T00:26:47;94011.03;;;-7.27;100.00
59367;BME280;45163;47.690;11.770;2023-01-29T00:29:14;94021.75;;;-7.32;100.00
59367;BME280;45163;47.690;11.770;2023-01-29T00:31:43;94022.38;;;-7.35;100.00
59367;BME280;45163;47.690;11.770;2023-01-29T00:34:09;94034.34;;;-7.38;100.00
59367;BME280;45163;47.690;11.770;2023-01-29T00:36:35;94033.84;;;-7.40;100.00
59367;BME280;45163;47.690;11.770;2023-01-29T00:39:01;94031.66;;;-7.46;100.00
59367;BME280;45163;47.690;11.770;2023-01-29T00:41:35;94032.56;;;-7.51;100.00
59367;BME280;45163;47.690;11.770;2023-01-29T00:44:21;94038.78;;;-7.56;100.00
59367;BME280;45163;47.690;11.770;2023-01-29T00:47:06;94040.53;;;-7.51;100.00
59367;BME280;45163;47.690;11.770;2023-01-29T00:49:50;94047.06;;;-7.48;100.00
59367;BME280;45163;47.690;11.770;2023-01-29T00:52:16;94047.88;;;-7.48;100.00
59367;BME280;45163;47.690;11.770;2023-01-29T00:54:49;94050.56;;;-7.39;100.00
59367;BME280;45163;47.690;11.770;2023-01-29T00:57:15;94050.44;;;-7.34;100.00
59367;BME280;45163;47.690;11.770;2023-01-29T00:59:41;94048.56;;;-7.34;100.00
59367;BME280;45163;47.690;11.770;2023-01-29T01:02:07;94060.28;;;-7.35;100.00
59367;BME280;45163;47.690;11.770;2023-01-29T01:04:52;94070.19;;;-7.40;100.00
59367;BME280;45163;47.690;11.770;2023-01-29T01:07:19;94073.03;;;-7.37;100.00
59367;BME280;45163;47.690;11.770;2023-01-29T01:09:45;94071.66;;;-7.34;100.00
59367;BME280;45163;47.690;11.770;2023-01-29T01:12:30;94081.16;;;-7.33;100.00
59367;BME280;45163;47.690;11.770;2023-01-29T01:14:56;94073.09;;;-7.28;100.00
59367;BME280;45163;47.690;11.770;2023-01-29T01:17:22;94068.28;;;-7.26;100.00
59367;BME280;45163;47.690;11.770;2023-01-29T01:19:48;94076.41;;;-7.22;100.00
59367;BME280;45163;47.690;11.770;2023-01-29T01:22:14;94073.75;;;-7.22;100.00
59367;BME280;45163;47.690;11.770;2023-01-29T01:24:40;94077.84;;;-7.16;100.00
59367;BME280;45163;47.690;11.770;2023-01-29T01:27:06;94079.53;;;-7.20;100.00
59367;BME280;45163;47.690;11.770;2023-01-29T01:29:33;94079.72;;;-7.17;100.00
59367;BME280;45163;47.690;11.770;2023-01-29T01:31:59;94082.72;;;-7.10;100.00
59367;BME280;45163;47.690;11.770;2023-01-29T01:34:25;94081.66;;;-7.00;100.00
59367;BME280;45163;47.690;11.770;2023-01-29T01:36:54;94078.72;;;-6.90;100.00
59367;BME280;45163;47.690;11.770;2023-01-29T01:39:24;94078.00;;;-6.82;100.00
59367;BME280;45163;47.690;11.770;2023-01-29T01:41:51;94073.53;;;-6.72;100.00
59367;BME280;45163;47.690;11.770;2023-01-29T01:44:50;94071.34;;;-6.62;100.00
59367;BME280;45163;47.690;11.770;2023-01-29T01:47:37;94071.22;;;-6.57;100.00
59367;BME280;45163;47.690;11.770;2023-01-29T01:50:11;94074.00;;;-6.62;100.00
59367;BME280;45163;47.690;11.770;2023-01-29T01:52:44;94076.38;;;-6.60;100.00
59367;BME280;45163;47.690;11.770;2023-01-29T01:55:13;94073.22;;;-6.62;100.00
59367;BME280;45163;47.690;11.770;2023-01-29T01:57:42;94069.66;;;-6.58;100.00
59367;BME280;45163;47.690;11.770;2023-01-29T02:00:13;94074.19;;;-6.49;100.00
59367;BME280;45163;47.690;11.770;2023-01-29T02:02:42;94075.31;;;-6.42;100.00
59367;BME280;45163;47.690;11.770;2023-01-29T02:05:30;94070.50;;;-6.31;100.00
59367;BME280;45163;47.690;11.770;2023-01-29T02:11:32;94069.78;;;-6.14;100.00
59367;BME280;45163;47.690;11.770;2023-01-29T02:13:58;94061.16;;;-6.11;100.00
59367;BME280;45163;47.690;11.770;2023-01-29T02:16:24;94066.63;;;-6.08;100.00
59367;BME280;45163;47.690;11.770;2023-01-29T02:18:50;94057.28;;;-6.05;100.00
59367;BME280;45163;47.690;11.770;2023-01-29T02:27:08;94072.44;;;-5.97;100.00
59367;BME280;45163;47.690;11.770;2023-01-29T02:29:52;94074.13;;;-5.84;100.00
59367;BME280;45163;47.690;11.770;2023-01-29T02:38:22;94078.50;;;-5.70;100.00
59367;BME280;45163;47.690;11.770;2023-01-29T02:41:40;94064.88;;;-5.69;100.00
59367;BME280;45163;47.690;11.770;2023-01-29T02:44:36;94083.66;;;-5.74;100.00
59367;BME280;45163;47.690;11.770;2023-01-29T02:52:16;94084.44;;;-5.82;100.00
59367;BME280;45163;47.690;11.770;2023-01-29T02:54:57;94084.44;;;-5.82;100.00
59367;BME280;45163;47.690;11.770;2023-01-29T02:57:31;94081.00;;;-5.74;100.00
59367;BME280;45163;47.690;11.770;2023-01-29T03:05:19;94064.88;;;-5.69;100.00
59367;BME280;45163;47.690;11.770;2023-01-29T03:07:52;94063.16;;;-5.65;100.00
59367;BME280;45163;47.690;11.770;2023-01-29T03:12:56;94067.09;;;-5.62;100.00
59367;BME280;45163;47.690;11.770;2023-01-29T03:15:31;94065.69;;;-5.60;100.00
59367;BME280;45163;47.690;11.770;2023-01-29T03:18:07;94066.63;;;-5.56;100.00
59367;BME280;45163;47.690;11.770;2023-01-29T03:20:40;94060.06;;;-5.58;100.00
59367;BME280;45163;47.690;11.770;2023-01-29T03:23:22;94060.22;;;-5.55;100.00
59367;BME280;45163;47.690;11.770;2023-01-29T03:25:54;94080.22;;;-5.48;100.00
59367;BME280;45163;47.690;11.770;2023-01-29T03:28:43;94081.81;;;-5.47;100.00
59367;BME280;45163;47.690;11.770;2023-01-29T03:31:31;94069.88;;;-5.41;100.00
59367;BME280;45163;47.690;11.770;2023-01-29T03:34:20;94063.63;;;-5.37;100.00
59367;BME280;45163;47.690;11.770;2023-01-29T03:37:02;94070.19;;;-5.34;100.00
59367;BME280;45163;47.690;11.770;2023-01-29T03:39:32;94059.72;;;-5.31;100.00
59367;BME280;45163;47.690;11.770;2023-01-29T03:44:52;94055.16;;;-5.30;100.00
59367;BME280;45163;47.690;11.770;2023-01-29T03:50:33;94044.97;;;-5.28;100.00
59367;BME280;45163;47.690;11.770;2023-01-29T03:53:18;94050.47;;;-5.33;100.00
59367;BME280;45163;47.690;11.770;2023-01-29T03:55:59;94049.88;;;-5.39;100.00
59367;BME280;45163;47.690;11.770;2023-01-29T04:00:57;94050.78;;;-5.43;100.00
59367;BME280;45163;47.690;11.770;2023-01-29T04:03:34;94048.44;;;-5.45;100.00
59367;BME280;45163;47.690;11.770;2023-01-29T04:06:21;94041.25;;;-5.44;100.00
59367;BME280;45163;47.690;11.770;2023-01-29T04:08:54;94050.34;;;-5.45;100.00
59367;BME280;45163;47.690;11.770;2023-01-29T04:11:23;94046.28;;;-5.43;100.00
59367;BME280;45163;47.690;11.770;2023-01-29T04:13:51;94036.41;;;-5.42;100.00
59367;BME280;45163;47.690;11.770;2023-01-29T04:16:21;94030.16;;;-5.46;100.00
59367;BME280;45163;47.690;11.770;2023-01-29T04:18:49;94018.88;;;-5.52;100.00
59367;BME280;45163;47.690;11.770;2023-01-29T04:21:16;94023.59;;;-5.58;100.00
59367;BME280;45163;47.690;11.770;2023-01-29T04:23:42;94029.88;;;-5.71;100.00
59367;BME280;45163;47.690;11.770;2023-01-29T04:26:32;94024.72;;;-5.85;100.00
59367;BME280;45163;47.690;11.770;2023-01-29T04:34:28;94013.94;;;-5.88;100.00
59367;BME280;45163;47.690;11.770;2023-01-29T04:37:13;94003.78;;;-5.95;100.00
59367;BME280;45163;47.690;11.770;2023-01-29T04:39:59;93999.75;;;-5.92;100.00
59367;BME280;45163;47.690;11.770;2023-01-29T04:42:31;93996.16;;;-5.96;100.00
59367;BME280;45163;47.690;11.770;2023-01-29T04:45:04;94003.63;;;-6.07;100.00
59367;BME280;45163;47.690;11.770;2023-01-29T04:50:35;94000.03;;;-6.29;100.00
59367;BME280;45163;47.690;11.770;2023-01-29T04:53:22;94000.97;;;-6.42;100.00
59367;BME280;45163;47.690;11.770;2023-01-29T04:55:58;94007.47;;;-6.57;100.00
59367;BME280;45163;47.690;11.770;2023-01-29T04:58:32;93996.84;;;-6.74;100.00
59367;BME280;45163;47.690;11.770;2023-01-29T05:01:04;93993.22;;;-6.87;100.00
59367;BME280;45163;47.690;11.770;2023-01-29T05:03:32;93990.84;;;-6.97;100.00
59367;BME280;45163;47.690;11.770;2023-01-29T05:06:01;93987.50;;;-7.11;100.00
59367;BME280;45163;47.690;11.770;2023-01-29T05:08:30;93994.06;;;-7.17;100.00
59367;BME280;45163;47.690;11.770;2023-01-29T05:10:58;93997.13;;;-7.24;100.00
59367;BME280;45163;47.690;11.770;2023-01-29T05:13:25;93999.75;;;-7.33;100.00
59367;BME280;45163;47.690;11.770;2023-01-29T05:16:08;94002.84;;;-7.39;100.00
59367;BME280;45163;47.690;11.770;2023-01-29T05:18:38;94010.31;;;-7.41;100.00
59367;BME280;45163;47.690;11.770;2023-01-29T05:21:06;94011.66;;;-7.53;100.00
59367;BME280;45163;47.690;11.770;2023-01-29T05:23:33;94009.13;;;-7.58;100.00
59367;BME280;45163;47.690;11.770;2023-01-29T05:26:00;94010.34;;;-7.64;100.00
59367;BME280;45163;47.690;11.770;2023-01-29T05:28:26;94012.63;;;-7.71;100.00
59367;BME280;45163;47.690;11.770;2023-01-29T05:30:53;94009.63;;;-7.78;100.00
59367;BME280;45163;47.690;11.770;2023-01-29T05:33:28;94008.84;;;-7.79;100.00
59367;BME280;45163;47.690;11.770;2023-01-29T05:35:57;94011.53;;;-7.70;100.00
59367;BME280;45163;47.690;11.770;2023-01-29T05:38:24;94013.06;;;-7.78;100.00
59367;BME280;45163;47.690;11.770;2023-01-29T05:40:50;94017.34;;;-7.90;100.00
59367;BME280;45163;47.690;11.770;2023-01-29T05:43:19;94018.47;;;-8.05;100.00
59367;BME280;45163;47.690;11.770;2023-01-29T05:46:11;94021.84;;;-8.13;100.00
59367;BME280;45163;47.690;11.770;2023-01-29T05:48:37;94032.03;;;-8.07;100.00
59367;BME280;45163;47.690;11.770;2023-01-29T05:51:04;94031.72;;;-8.05;100.00
59367;BME280;45163;47.690;11.770;2023-01-29T05:53:31;94038.41;;;-8.08;100.00
59367;BME280;45163;47.690;11.770;2023-01-29T05:56:00;94052.06;;;-8.14;100.00
59367;BME280;45163;47.690;11.770;2023-01-29T05:58:26;94049.63;;;-8.24;100.00
59367;BME280;45163;47.690;11.770;2023-01-29T06:00:52;94055.16;;;-8.35;100.00
59367;BME280;45163;47.690;11.770;2023-01-29T06:03:18;94056.28;;;-8.49;100.00
59367;BME280;45163;47.690;11.770;2023-01-29T06:05:44;94056.00;;;-8.62;100.00
59367;BME280;45163;47.690;11.770;2023-01-29T06:08:10;94067.09;;;-8.73;100.00
59367;BME280;45163;47.690;11.770;2023-01-29T06:10:36;94068.84;;;-8.83;100.00
59367;BME280;45163;47.690;11.770;2023-01-29T06:13:02;94075.53;;;-8.85;100.00
59367;BME280;45163;47.690;11.770;2023-01-29T06:15:28;94077.66;;;-8.87;100.00
59367;BME280;45163;47.690;11.770;2023-01-29T06:17:55;94086.28;;;-8.95;100.00
59367;BME280;45163;47.690;11.770;2023-01-29T06:20:21;94089.31;;;-9.02;100.00
59367;BME280;45163;47.690;11.770;2023-01-29T06:22:47;94090.19;;;-9.07;100.00
59367;BME280;45163;47.690;11.770;2023-01-29T06:25:13;94090.88;;;-9.01;100.00
59367;BME280;45163;47.690;11.770;2023-01-29T06:27:39;94094.88;;;-9.04;100.00
59367;BME280;45163;47.690;11.770;2023-01-29T06:30:06;94091.25;;;-9.08;100.00
59367;BME280;45163;47.690;11.770;2023-01-29T06:32:33;94097.31;;;-9.07;100.00
59367;BME280;45163;47.690;11.770;2023-01-29T06:34:59;94094.56;;;-9.16;100.00
59367;BME280;45163;47.690;11.770;2023-01-29T06:37:25;94095.75;;;-9.08;100.00
59367;BME280;45163;47.690;11.770;2023-01-29T06:39:51;94099.19;;;-9.08;100.00
59367;BME280;45163;47.690;11.770;2023-01-29T06:42:17;94094.50;;;-9.11;100.00
59367;BME280;45163;47.690;11.770;2023-01-29T06:44:43;94088.44;;;-8.97;100.00
59367;BME280;45163;47.690;11.770;2023-01-29T06:47:09;94088.91;;;-8.95;100.00
59367;BME280;45163;47.690;11.770;2023-01-29T06:49:35;94087.06;;;-8.95;100.00
59367;BME280;45163;47.690;11.770;2023-01-29T06:52:01;94084.03;;;-9.02;100.00
59367;BME280;45163;47.690;11.770;2023-01-29T06:54:27;94090.47;;;-9.08;100.00
59367;BME280;45163;47.690;11.770;2023-01-29T06:56:54;94095.56;;;-9.12;100.00
59367;BME280;45163;47.690;11.770;2023-01-29T06:59:20;94087.03;;;-9.09;100.00
59367;BME280;45163;47.690;11.770;2023-01-29T07:01:46;94083.53;;;-8.90;100.00
59367;BME280;45163;47.690;11.770;2023-01-29T07:04:12;94090.72;;;-8.77;100.00
59367;BME280;45163;47.690;11.770;2023-01-29T07:06:39;94090.72;;;-8.77;100.00
59367;BME280;45163;47.690;11.770;2023-01-29T07:09:04;94094.50;;;-8.83;100.00
59367;BME280;45163;47.690;11.770;2023-01-29T07:11:31;94096.75;;;-8.90;100.00
59367;BME280;45163;47.690;11.770;2023-01-29T07:13:58;94096.16;;;-9.01;100.00
59367;BME280;45163;47.690;11.770;2023-01-29T07:16:24;94095.19;;;-9.05;100.00
59367;BME280;45163;47.690;11.770;2023-01-29T07:18:51;94093.13;;;-9.08;100.00
59367;BME280;45163;47.690;11.770;2023-01-29T07:21:17;94096.75;;;-9.04;100.00
59367;BME280;45163;47.690;11.770;2023-01-29T07:23:43;94090.09;;;-9.01;100.00
59367;BME280;45163;47.690;11.770;2023-01-29T07:26:10;94090.88;;;-9.01;100.00
59367;BME280;45163;47.690;11.770;2023-01-29T07:28:37;94098.81;;;-9.01;100.00
59367;BME280;45163;47.690;11.770;2023-01-29T07:31:04;94091.56;;;-9.09;100.00
59367;BME280;45163;47.690;11.770;2023-01-29T07:33:30;94085.28;;;-9.13;100.00
59367;BME280;45163;47.690;11.770;2023-01-29T07:35:56;94079.41;;;-9.10;100.00
59367;BME280;45163;47.690;11.770;2023-01-29T07:38:22;94075.38;;;-9.08;100.00
59367;BME280;45163;47.690;11.770;2023-01-29T07:40:48;94065.78;;;-9.04;100.00
59367;BME280;45163;47.690;11.770;2023-01-29T07:43:15;94069.72;;;-9.01;100.00
59367;BME280;45163;47.690;11.770;2023-01-29T07:45:41;94061.22;;;-8.98;100.00
59367;BME280;45163;47.690;11.770;2023-01-29T07:48:10;94056.13;;;-8.94;100.00
59367;BME280;45163;47.690;11.770;2023-01-29T07:50:37;94060.44;;;-8.85;100.00
59367;BME280;45163;47.690;11.770;2023-01-29T07:53:03;94060.31;;;-8.80;100.00
59367;BME280;45163;47.690;11.770;2023-01-29T07:55:30;94059.44;;;-8.75;100.00
59367;BME280;45163;47.690;11.770;2023-01-29T07:57:57;94059.91;;;-8.59;100.00
59367;BME280;45163;47.690;11.770;2023-01-29T08:00:23;94063.56;;;-8.69;100.00
59367;BME280;45163;47.690;11.770;2023-01-29T08:02:49;94060.91;;;-8.83;100.00
59367;BME280;45163;47.690;11.770;2023-01-29T08:05:15;94056.22;;;-8.86;100.00
59367;BME280;45163;47.690;11.770;2023-01-29T08:07:41;94065.50;;;-8.74;100.00
59367;BME280;45163;47.690;11.770;2023-01-29T08:10:08;94065.41;;;-8.69;100.00
59367;BME280;45163;47.690;11.770;2023-01-29T08:12:34;94050.63;;;-8.57;100.00
59367;BME280;45163;47.690;11.770;2023-01-29T08:15:00;94053.66;;;-8.27;100.00
59367;BME280;45163;47.690;11.770;2023-01-29T08:17:26;94051.97;;;-7.87;100.00
59367;BME280;45163;47.690;11.770;2023-01-29T08:19:52;94049.72;;;-7.48;100.00
59367;BME280;45163;47.690;11.770;2023-01-29T08:22:18;94043.66;;;-7.18;100.00
59367;BME280;45163;47.690;11.770;2023-01-29T08:24:44;94044.34;;;-6.64;100.00
59367;BME280;45163;47.690;11.770;2023-01-29T08:27:10;94044.13;;;-6.10;100.00
59367;BME280;45163;47.690;11.770;2023-01-29T08:29:36;94043.81;;;-6.00;100.00
59367;BME280;45163;47.690;11.770;2023-01-29T08:32:02;94043.78;;;-5.83;100.00
59367;BME280;45163;47.690;11.770;2023-01-29T08:34:28;94044.69;;;-5.53;100.00
59367;BME280;45163;47.690;11.770;2023-01-29T08:36:54;94038.31;;;-4.96;100.00
59367;BME280;45163;47.690;11.770;2023-01-29T08:39:20;94040.16;;;-3.99;100.00
59367;BME280;45163;47.690;11.770;2023-01-29T08:41:45;94039.53;;;-3.21;100.00
59367;BME280;45163;47.690;11.770;2023-01-29T08:44:11;94030.16;;;-2.08;100.00
59367;BME280;45163;47.690;11.770;2023-01-29T08:46:37;94022.34;;;-1.61;100.00
59367;BME280;45163;47.690;11.770;2023-01-29T08:49:05;94022.72;;;-1.46;100.00
59367;BME280;45163;47.690;11.770;2023-01-29T08:51:32;94013.84;;;-1.91;100.00
59367;BME280;45163;47.690;11.770;2023-01-29T08:53:58;94013.06;;;-1.91;100.00
59367;BME280;45163;47.690;11.770;2023-01-29T08:56:24;94016.97;;;-2.01;100.00
59367;BME280;45163;47.690;11.770;2023-01-29T08:58:50;94011.19;;;-2.03;100.00
59367;BME280;45163;47.690;11.770;2023-01-29T09:01:16;94015.13;;;-2.62;100.00
59367;BME280;45163;47.690;11.770;2023-01-29T09:03:42;94014.31;;;-2.99;100.00
59367;BME280;45163;47.690;11.770;2023-01-29T09:06:13;94004.16;;;-3.06;100.00
59367;BME280;45163;47.690;11.770;2023-01-29T09:08:39;94017.34;;;-2.76;100.00
59367;BME280;45163;47.690;11.770;2023-01-29T09:11:06;94022.94;;;-2.32;100.00
59367;BME280;45163;47.690;11.770;2023-01-29T09:13:32;94028.66;;;-1.93;100.00
59367;BME280;45163;47.690;11.770;2023-01-29T09:15:59;94023.56;;;-1.58;100.00
59367;BME280;45163;47.690;11.770;2023-01-29T09:18:26;94024.84;;;-1.40;100.00
59367;BME280;45163;47.690;11.770;2023-01-29T09:20:52;94012.44;;;-1.32;100.00
59367;BME280;45163;47.690;11.770;2023-01-29T09:23:19;94012.94;;;-0.83;100.00
59367;BME280;45163;47.690;11.770;2023-01-29T09:25:45;94022.88;;;-0.20;100.00
59367;BME280;45163;47.690;11.770;2023-01-29T09:28:12;94015.13;;;0.88;100.00
59367;BME280;45163;47.690;11.770;2023-01-29T09:30:38;94019.81;;;1.56;100.00
59367;BME280;45163;47.690;11.770;2023-01-29T09:33:04;94004.91;;;2.75;100.00
59367;BME280;45163;47.690;11.770;2023-01-29T09:35:31;94003.59;;;3.74;100.00
59367;BME280;45163;47.690;11.770;2023-01-29T09:37:57;94005.81;;;4.86;100.00
59367;BME280;45163;47.690;11.770;2023-01-29T09:42:58;94004.75;;;6.65;100.00
59367;BME280;45163;47.690;11.770;2023-01-29T09:45:27;94008.28;;;7.46;99.64
59367;BME280;45163;47.690;11.770;2023-01-29T09:47:59;93997.69;;;8.60;93.63
59367;BME280;45163;47.690;11.770;2023-01-29T09:50:38;94006.81;;;9.11;87.33
59367;BME280;45163;47.690;11.770;2023-01-29T09:53:16;94012.94;;;10.54;79.06
59367;BME280;45163;47.690;11.770;2023-01-29T09:56:22;94010.69;;;11.88;60.49
59367;BME280;45163;47.690;11.770;2023-01-29T09:58:57;94023.44;;;12.27;50.65
59367;BME280;45163;47.690;11.770;2023-01-29T10:09:48;94039.56;;;10.69;42.68
59367;BME280;45163;47.690;11.770;2023-01-29T10:23:20;94037.72;;;13.13;51.88
59367;BME280;45163;47.690;11.770;2023-01-29T10:25:47;94048.06;;;12.11;42.01
59367;BME280;45163;47.690;11.770;2023-01-29T10:28:20;94054.25;;;10.99;42.51
59367;BME280;45163;47.690;11.770;2023-01-29T10:30:56;94045.63;;;10.34;48.99
59367;BME280;45163;47.690;11.770;2023-01-29T10:33:50;94047.53;;;10.10;45.73
59367;BME280;45163;47.690;11.770;2023-01-29T10:36:18;94045.50;;;11.47;46.12
59367;BME280;45163;47.690;11.770;2023-01-29T10:38:49;94044.13;;;11.00;41.32
59367;BME280;45163;47.690;11.770;2023-01-29T10:41:38;94035.09;;;12.31;50.74
59367;BME280;45163;47.690;11.770;2023-01-29T10:52:48;94025.53;;;13.98;36.12
59367;BME280;45163;47.690;11.770;2023-01-29T10:55:00;94020.16;;;13.94;37.49
59367;BME280;45163;47.690;11.770;2023-01-29T10:57:41;94030.97;;;13.59;38.31
59367;BME280;45163;47.690;11.770;2023-01-29T11:00:18;94028.28;;;13.14;37.03
59367;BME280;45163;47.690;11.770;2023-01-29T11:02:47;94025.94;;;13.70;37.48
59367;BME280;45163;47.690;11.770;2023-01-29T11:08:24;94018.75;;;11.75;35.59
59367;BME280;45163;47.690;11.770;2023-01-29T11:11:14;94010.44;;;11.99;36.64
59367;BME280;45163;47.690;11.770;2023-01-29T11:14:07;94006.91;;;11.62;38.72
59367;BME280;45163;47.690;11.770;2023-01-29T11:16:43;94000.56;;;10.69;39.99
59367;BME280;45163;47.690;11.770;2023-01-29T11:19:12;93991.41;;;11.39;39.76
59367;BME280;45163;47.690;11.770;2023-01-29T11:21:58;93990.97;;;11.77;39.85
59367;BME280;45163;47.690;11.770;2023-01-29T11:24:25;93992.50;;;12.14;41.19
59367;BME280;45163;47.690;11.770;2023-01-29T11:26:57;93987.09;;;12.43;42.63
59367;BME280;45163;47.690;11.770;2023-01-29T11:32:00;93971.81;;;12.13;38.19
59367;BME280;45163;47.690;11.770;2023-01-29T11:34:28;93966.91;;;10.32;40.07
59367;BME280;45163;47.690;11.770;2023-01-29T11:37:02;93973.41;;;12.27;41.14
59367;BME280;45163;47.690;11.770;2023-01-29T11:39:31;93964.91;;;11.00;40.42
59367;BME280;45163;47.690;11.770;2023-01-29T11:41:58;93965.13;;;12.14;40.88
59367;BME280;45163;47.690;11.770;2023-01-29T11:49:37;93979.31;;;11.92;44.01
59367;BME280;45163;47.690;11.770;2023-01-29T11:52:06;93974.16;;;10.42;45.52
59367;BME280;45163;47.690;11.770;2023-01-29T11:54:43;93981.41;;;9.79;48.16
59367;BME280;45163;47.690;11.770;2023-01-29T11:57:37;93987.00;;;8.76;52.90
59367;BME280;45163;47.690;11.770;2023-01-29T12:00:28;93981.97;;;7.88;58.31
59367;BME280;45163;47.690;11.770;2023-01-29T12:03:06;93973.75;;;6.59;68.58
59367;BME280;45163;47.690;11.770;2023-01-29T12:05:37;93978.88;;;5.46;77.06
59367;BME280;45163;47.690;11.770;2023-01-29T12:08:14;93974.97;;;5.19;84.00
59367;BME280;45163;47.690;11.770;2023-01-29T12:10:42;93966.97;;;4.42;85.30
59367;BME280;45163;47.690;11.770;2023-01-29T12:15:38;93954.44;;;5.04;89.02
59367;BME280;45163;47.690;11.770;2023-01-29T12:20:43;93933.81;;;7.92;70.36
59367;BME280;45163;47.690;11.770;2023-01-29T12:26:28;93911.56;;;8.77;62.21
59367;BME280;45163;47.690;11.770;2023-01-29T12:31:56;93906.66;;;9.76;55.39
59367;BME280;45163;47.690;11.770;2023-01-29T12:34:35;93891.94;;;8.92;54.19
59367;BME280;45163;47.690;11.770;2023-01-29T12:37:39;93888.59;;;9.62;49.33
59367;BME280;45163;47.690;11.770;2023-01-29T12:40:16;93875.53;;;10.40;49.30
59367;BME280;45163;47.690;11.770;2023-01-29T12:42:52;93873.53;;;9.54;48.98
59367;BME280;45163;47.690;11.770;2023-01-29T12:45:22;93861.06;;;10.00;51.20
59367;BME280;45163;47.690;11.770;2023-01-29T12:48:01;93855.19;;;10.25;48.67
59367;BME280;45163;47.690;11.770;2023-01-29T12:50:35;93858.19;;;9.87;50.16
59367;BME280;45163;47.690;11.770;2023-01-29T12:53:28;93854.72;;;9.36;53.97
59367;BME280;45163;47.690;11.770;2023-01-29T12:55:59;93859.78;;;7.33;56.28
59367;BME280;45163;47.690;11.770;2023-01-29T12:58:49;93858.97;;;6.80;59.86
59367;BME280;45163;47.690;11.770;2023-01-29T13:01:32;93845.69;;;7.48;65.41
59367;BME280;45163;47.690;11.770;2023-01-29T13:04:15;93848.50;;;7.79;63.65
59367;BME280;45163;47.690;11.770;2023-01-29T13:06:50;93847.44;;;7.69;64.63
59367;BME280;45163;47.690;11.770;2023-01-29T13:09:24;93850.31;;;7.52;64.09
59367;BME280;45163;47.690;11.770;2023-01-29T13:14:47;93856.63;;;5.98;70.75
59367;BME280;45163;47.690;11.770;2023-01-29T13:17:45;93860.50;;;5.72;76.55
59367;BME280;45163;47.690;11.770;2023-01-29T13:20:21;93861.31;;;5.33;78.42
59367;BME280;45163;47.690;11.770;2023-01-29T13:22:49;93860.13;;;4.84;82.82
59367;BME280;45163;47.690;11.770;2023-01-29T13:25:18;93853.91;;;4.62;88.60
59367;BME280;45163;47.690;11.770;2023-01-29T13:27:45;93844.25;;;4.65;91.55
59367;BME280;45163;47.690;11.770;2023-01-29T13:30:28;93845.69;;;4.23;92.25
59367;BME280;45163;47.690;11.770;2023-01-29T13:32:57;93838.22;;;3.95;91.90
59367;BME280;45163;47.690;11.770;2023-01-29T13:35:44;93830.88;;;3.85;94.40
59367;BME280;45163;47.690;11.770;2023-01-29T13:38:40;93827.66;;;3.61;98.21
59367;BME280;45163;47.690;11.770;2023-01-29T13:41:10;93829.00;;;3.34;99.76
59367;BME280;45163;47.690;11.770;2023-01-29T13:43:38;93827.81;;;3.28;100.00
59367;BME280;45163;47.690;11.770;2023-01-29T13:46:14;93827.16;;;3.45;100.00
59367;BME280;45163;47.690;11.770;2023-01-29T13:48:45;93823.00;;;2.59;100.00
59367;BME280;45163;47.690;11.770;2023-01-29T13:51:14;93820.06;;;2.74;100.00
59367;BME280;45163;47.690;11.770;2023-01-29T13:53:53;93817.56;;;2.52;100.00
59367;BME280;45163;47.690;11.770;2023-01-29T13:58:56;93816.22;;;1.97;100.00
59367;BME280;45163;47.690;11.770;2023-01-29T14:06:51;93817.16;;;1.48;100.00
59367;BME280;45163;47.690;11.770;2023-01-29T14:10:00;93808.25;;;1.44;100.00
59367;BME280;45163;47.690;11.770;2023-01-29T14:12:36;93806.78;;;1.20;100.00
59367;BME280;45163;47.690;11.770;2023-01-29T14:15:13;93805.78;;;1.32;100.00
59367;BME280;45163;47.690;11.770;2023-01-29T14:17:53;93805.38;;;1.30;100.00
59367;BME280;45163;47.690;11.770;2023-01-29T14:20:24;93807.94;;;1.49;100.00
59367;BME280;45163;47.690;11.770;2023-01-29T14:22:56;93803.44;;;1.57;100.00
59367;BME280;45163;47.690;11.770;2023-01-29T14:25:37;93803.25;;;1.43;100.00
59367;BME280;45163;47.690;11.770;2023-01-29T14:28:14;93795.03;;;1.32;100.00
59367;BME280;45163;47.690;11.770;2023-01-29T14:30:46;93794.94;;;1.25;100.00
59367;BME280;45163;47.690;11.770;2023-01-29T14:33:39;93790.00;;;1.01;100.00
59367;BME280;45163;47.690;11.770;2023-01-29T14:36:11;93782.41;;;0.83;100.00
59367;BME280;45163;47.690;11.770;2023-01-29T14:38:45;93785.09;;;0.83;100.00
59367;BME280;45163;47.690;11.770;2023-01-29T14:43:41;93784.44;;;0.63;100.00
59367;BME280;45163;47.690;11.770;2023-01-29T14:48:58;93797.97;;;0.47;100.00
59367;BME280;45163;47.690;11.770;2023-01-29T14:51:25;93795.34;;;0.28;100.00
59367;BME280;45163;47.690;11.770;2023-01-29T14:54:00;93799.88;;;0.24;100.00
59367;BME280;45163;47.690;11.770;2023-01-29T14:56:33;93798.47;;;0.11;100.00
59367;BME280;45163;47.690;11.770;2023-01-29T15:01:30;93813.22;;;-0.41;100.00
59367;BME280;45163;47.690;11.770;2023-01-29T15:04:04;93812.41;;;-0.42;100.00